Time;durP1;ratioP1;P1;durP2;ratioP2;P2;SDS_P1;SDS_P2;PMS_P1;PMS_P2;Temp;Humidity;BMP_temperature;BMP_pressure;BME280_temperature;BME280_humidity;BME280_pressure;Samples;Min_cycle;Max_cycle;Signal;HPM_P1;HPM_P2
2023/09/11 00:00:59;;;;;;;;;;;;;;;;;;5112633;28;19912;-72
2023/09/11 00:03:25;;;;;;;;;;;;;;;;;;5113185;28;19908;-72
2023/09/11 00:05:51;;;;;;;;;;;;;;;;;;5094769;28;19907;-71
2023/09/11 00:08:17;;;;;;;;;;;;;;;;;;5113070;28;20333;-72
2023/09/11 00:10:43;;;;;;;;;;;;;;;;;;5094931;28;20011;-72
2023/09/11 00:13:09;;;;;;;;;;;;;;;;;;5113094;28;19954;-72
2023/09/11 00:15:35;;;;;;;;;;;;;;;;;;5112864;28;19947;-72
2023/09/11 00:18:01;;;;;;;;;;;;;;;;;;5112660;28;19915;-72
2023/09/11 00:20:27;;;;;;;;;;;;;;;;;;5112887;28;19944;-72
2023/09/11 00:22:53;;;;;;;;;;;;;;;;;;5112799;28;19908;-73
2023/09/11 00:25:19;;;;;;;;;;;;;;;;;;5112834;28;20329;-72
2023/09/11 00:27:45;;;;;;;;;;;;;;;;;;5112364;28;19988;-73
2023/09/11 00:30:11;;;;;;;;;;;;;;;;;;5112719;28;20362;-72
2023/09/11 00:32:37;;;;;;;;;;;;;;;;;;5112744;28;20411;-72
2023/09/11 00:35:03;;;;;;;;;;;;;;;;;;5112048;28;19951;-72
2023/09/11 00:37:29;;;;;;;;;;;;;;;;;;5112111;28;19984;-72
2023/09/11 00:39:55;;;;;;;;;;;;;;;;;;5113009;28;19973;-72
2023/09/11 00:42:21;;;;;;;;;;;;;;;;;;5112630;28;19951;-72
2023/09/11 00:44:46;;;;;;;;;;;;;;;;;;5112027;28;20706;-72
2023/09/11 00:47:12;;;;;;;;;;;;;;;;;;5112202;28;20000;-73
2023/09/11 00:49:39;;;;;;;;;;;;;;;;;;5112435;28;19981;-72
2023/09/11 00:52:05;;;;;;;;;;;;;;;;;;5093743;28;20280;-73
2023/09/11 00:54:31;;;;;;;;;;;;;;;;;;5111991;28;19965;-72
2023/09/11 00:56:57;;;;;;;;;;;;;;;;;;5112345;28;19943;-72
2023/09/11 00:59:23;;;;;;;;;;;;;;;;;;5111221;28;19964;-72
2023/09/11 01:01:49;;;;;;;;;;;;;;;;;;5111431;28;19912;-74
2023/09/11 01:04:15;;;;;;;;;;;;;;;;;;5112123;28;19912;-73
2023/09/11 01:06:41;;;;;;;;;;;;;;;;;;5112045;28;19964;-74
2023/09/11 01:09:07;;;;;;;;;;;;;;;;;;5111865;28;19955;-74
2023/09/11 01:11:33;;;;;;;;;;;;;;;;;;5111823;28;19912;-73
2023/09/11 01:14:00;;;;;;;;;;;;;;;;;;5111834;28;19908;-73
2023/09/11 01:16:26;;;;;;;;;;;;;;;;;;5112051;28;19920;-73
2023/09/11 01:18:52;;;;;;;;;;;;;;;;;;5111424;28;19953;-73
2023/09/11 01:21:19;;;;;;;;;;;;;;;;;;5111515;28;19951;-72
2023/09/11 01:23:45;;;;;;;;;;;;;;;;;;5112003;28;20006;-73
2023/09/11 01:26:11;;;;;;;;;;;;;;;;;;5111576;28;19998;-73
2023/09/11 01:28:37;;;;;;;;;;;;;;;;;;5110745;28;19955;-73
2023/09/11 01:31:03;;;;;;;;;;;;;;;;;;5111343;28;20391;-73
2023/09/11 01:33:29;;;;;;;;;;;;;;;;;;5111430;28;19907;-72
2023/09/11 01:35:55;;;;;;;;;;;;;;;;;;5111338;28;20007;-72
2023/09/11 01:38:21;;;;;;;;;;;;;;;;;;5111098;28;19962;-72
2023/09/11 01:40:47;;;;;;;;;;;;;;;;;;5111235;28;20013;-72
2023/09/11 01:43:13;;;;;;;;;;;;;;;;;;5111004;28;19997;-72
2023/09/11 01:45:39;;;;;;;;;;;;;;;;;;5111201;28;19958;-73
2023/09/11 01:48:05;;;;;;;;;;;;;;;;;;5110924;28;20000;-73
2023/09/11 01:50:31;;;;;;;;;;;;;;;;;;5111099;28;19958;-72
2023/09/11 01:52:57;;;;;;;;;;;;;;;;;;5110972;28;20764;-72
2023/09/11 01:55:23;;;;;;;;;;;;;;;;;;5111134;28;19939;-72
2023/09/11 01:57:49;;;;;;;;;;;;;;;;;;5110850;28;20384;-72
2023/09/11 02:00:15;;;;;;;;;;;;;;;;;;5111028;28;19943;-72
2023/09/11 02:02:41;;;;;;;;;;;;;;;;;;5111161;28;19950;-72
2023/09/11 02:05:07;;;;;;;;;;;;;;;;;;5110949;28;19908;-72
2023/09/11 02:07:33;;;;;;;;;;;;;;;;;;5110972;28;19955;-72
2023/09/11 02:09:59;;;;;;;;;;;;;;;;;;5110803;28;20014;-72
2023/09/11 02:12:25;;;;;;;;;;;;;;;;;;5092431;28;19968;-72
2023/09/11 02:14:51;;;;;;;;;;;;;;;;;;5110728;28;20421;-71
2023/09/11 02:17:17;;;;;;;;;;;;;;;;;;5110757;28;20397;-71
2023/09/11 02:19:44;;;;;;;;;;;;;;;;;;5110919;28;19947;-72
2023/09/11 02:22:10;;;;;;;;;;;;;;;;;;5110704;28;20560;-72
2023/09/11 02:24:36;;;;;;;;;;;;;;;;;;5110599;28;19972;-72
2023/09/11 02:27:02;;;;;;;;;;;;;;;;;;5110284;28;19915;-72
2023/09/11 02:29:28;;;;;;;;;;;;;;;;;;5110142;28;19958;-72
2023/09/11 02:31:54;;;;;;;;;;;;;;;;;;5109770;28;19943;-71
2023/09/11 02:34:20;;;;;;;;;;;;;;;;;;5110691;28;19908;-72
2023/09/11 02:36:46;;;;;;;;;;;;;;;;;;5110699;28;19915;-72
2023/09/11 02:39:12;;;;;;;;;;;;;;;;;;5110248;28;19946;-73
2023/09/11 02:41:38;;;;;;;;;;;;;;;;;;5110827;28;19915;-71
2023/09/11 02:44:04;;;;;;;;;;;;;;;;;;5111271;28;19908;-72
2023/09/11 02:46:30;;;;;;;;;;;;;;;;;;5110952;28;19951;-72
2023/09/11 02:48:56;;;;;;;;;;;;;;;;;;5111218;28;19941;-72
2023/09/11 02:51:25;;;;;;;;;;;;;;;;;;5111416;28;20049;-72
2023/09/11 02:53:51;;;;;;;;;;;;;;;;;;5111221;28;19907;-73
2023/09/11 02:56:17;;;;;;;;;;;;;;;;;;5111467;28;20025;-73
2023/09/11 02:58:43;;;;;;;;;;;;;;;;;;5111121;28;20003;-73
2023/09/11 03:01:09;;;;;;;;;;;;;;;;;;5111309;28;20437;-73
2023/09/11 03:03:35;;;;;;;;;;;;;;;;;;5110658;28;20017;-73
2023/09/11 03:06:01;;;;;;;;;;;;;;;;;;5092681;28;19985;-73
2023/09/11 03:08:27;;;;;;;;;;;;;;;;;;5110606;28;19983;-73
2023/09/11 03:10:53;;;;;;;;;;;;;;;;;;5092595;28;20444;-72
2023/09/11 03:13:19;;;;;;;;;;;;;;;;;;5110657;28;20002;-73
2023/09/11 03:15:45;;;;;;;;;;;;;;;;;;5111171;28;20396;-72
2023/09/11 03:18:11;;;;;;;;;;;;;;;;;;5092561;28;19915;-73
2023/09/11 03:20:37;;;;;;;;;;;;;;;;;;5110748;28;19908;-73
2023/09/11 03:23:03;;;;;;;;;;;;;;;;;;5111005;28;19960;-73
2023/09/11 03:25:29;;;;;;;;;;;;;;;;;;5115191;28;19919;-72
2023/09/11 03:27:55;;;;;;;;;;;;;;;;;;5114604;28;19952;-73
2023/09/11 03:30:21;;;;;;;;;;;;;;;;;;5114562;28;19958;-72
2023/09/11 03:32:47;;;;;;;;;;;;;;;;;;5114958;28;19955;-73
2023/09/11 03:35:13;;;;;;;;;;;;;;;;;;5115103;28;19952;-73
2023/09/11 03:37:39;;;;;;;;;;;;;;;;;;5114647;28;19970;-71
2023/09/11 03:40:08;;;;;;;;;;;;;;;;;;5114666;28;19999;-72
2023/09/11 03:42:34;;;;;;;;;;;;;;;;;;5113503;28;19919;-72
2023/09/11 03:45:00;;;;;;;;;;;;;;;;;;5114523;28;19907;-72
2023/09/11 03:47:26;;;;;;;;;;;;;;;;;;5114505;28;19952;-72
2023/09/11 03:49:52;;;;;;;;;;;;;;;;;;5114467;28;20056;-72
2023/09/11 03:52:17;;;;;;;;;;;;;;;;;;5087175;28;19956;-72
2023/09/11 03:54:44;;;;;;;;;;;;;;;;;;5094217;28;19908;-72
2023/09/11 03:57:09;;;;;;;;;;;;;;;;;;5094386;28;19908;-72
2023/09/11 03:59:36;;;;;;;;;;;;;;;;;;5094117;28;20397;-72
2023/09/11 04:02:02;;;;;;;;;;;;;;;;;;5094314;28;19912;-75
2023/09/11 04:04:28;;;;;;;;;;;;;;;;;;5093708;28;19916;-72
2023/09/11 04:06:54;;;;;;;;;;;;;;;;;;5100341;28;19908;-72
2023/09/11 04:09:19;;;;;;;;;;;;;;;;;;5114002;28;20404;-73
2023/09/11 04:11:45;;;;;;;;;;;;;;;;;;5113725;28;19920;-72
2023/09/11 04:14:11;;;;;;;;;;;;;;;;;;5113882;28;19979;-71
2023/09/11 04:16:37;;;;;;;;;;;;;;;;;;5113824;28;20492;-72
2023/09/11 04:19:04;;;;;;;;;;;;;;;;;;5105859;28;19908;-72
2023/09/11 04:21:30;;;;;;;;;;;;;;;;;;5106638;28;19918;-72
2023/09/11 04:23:56;;;;;;;;;;;;;;;;;;5113527;28;19920;-71
2023/09/11 04:26:22;;;;;;;;;;;;;;;;;;5112849;28;19965;-72
2023/09/11 04:28:48;;;;;;;;;;;;;;;;;;5109082;28;19963;-72
2023/09/11 04:31:14;;;;;;;;;;;;;;;;;;5112835;28;19936;-72
2023/09/11 04:33:40;;;;;;;;;;;;;;;;;;5092979;28;19977;-72
2023/09/11 04:36:06;;;;;;;;;;;;;;;;;;5093264;28;20322;-72
2023/09/11 04:38:32;;;;;;;;;;;;;;;;;;5093471;28;19916;-72
2023/09/11 04:40:58;;;;;;;;;;;;;;;;;;5075212;28;19950;-73
2023/09/11 04:43:24;;;;;;;;;;;;;;;;;;5092216;28;19954;-73
2023/09/11 04:45:50;;;;;;;;;;;;;;;;;;5089069;28;19919;-73
2023/09/11 04:48:17;;;;;;;;;;;;;;;;;;5069867;28;19989;-72
2023/09/11 04:50:43;;;;;;;;;;;;;;;;;;5089566;28;19912;-72
2023/09/11 04:53:09;;;;;;;;;;;;;;;;;;5089831;28;19908;-73
2023/09/11 04:55:35;;;;;;;;;;;;;;;;;;5089674;28;19908;-73
2023/09/11 04:58:01;;;;;;;;;;;;;;;;;;5090344;28;20373;-73
2023/09/11 05:00:27;;;;;;;;;;;;;;;;;;5091248;28;19916;-73
2023/09/11 05:02:53;;;;;;;;;;;;;;;;;;5091354;28;20011;-72
2023/09/11 05:05:19;;;;;;;;;;;;;;;;;;5090754;28;20081;-72
2023/09/11 05:07:45;;;;;;;;;;;;;;;;;;5091420;28;19937;-73
2023/09/11 05:10:14;;;;;;;;;;;;;;;;;;5093772;28;20019;-72
2023/09/11 05:12:40;;;;;;;;;;;;;;;;;;5090849;28;19908;-73
2023/09/11 05:15:06;;;;;;;;;;;;;;;;;;5092832;28;19908;-73
2023/09/11 05:17:32;;;;;;;;;;;;;;;;;;5092980;28;20406;-73
2023/09/11 05:19:58;;;;;;;;;;;;;;;;;;5097747;28;19915;-72
2023/09/11 05:22:24;;;;;;;;;;;;;;;;;;5112791;28;19908;-72
2023/09/11 05:24:51;;;;;;;;;;;;;;;;;;5094245;28;20064;-73
2023/09/11 05:27:17;;;;;;;;;;;;;;;;;;5112964;28;19951;-72
2023/09/11 05:29:43;;;;;;;;;;;;;;;;;;5112996;28;20575;-73
2023/09/11 05:32:09;;;;;;;;;;;;;;;;;;5112478;28;19919;-73
2023/09/11 05:34:36;;;;;;;;;;;;;;;;;;5099349;28;19913;-72
2023/09/11 05:37:02;;;;;;;;;;;;;;;;;;5092403;28;19908;-73
2023/09/11 05:39:31;;;;;;;;;;;;;;;;;;5108132;28;19915;-72
2023/09/11 05:41:58;;;;;;;;;;;;;;;;;;5092698;28;19994;-72
2023/09/11 05:44:24;;;;;;;;;;;;;;;;;;5091765;28;19908;-72
2023/09/11 05:46:50;;;;;;;;;;;;;;;;;;5091055;28;20307;-72
2023/09/11 05:49:16;;;;;;;;;;;;;;;;;;5092405;28;19995;-73
2023/09/11 05:51:42;;;;;;;;;;;;;;;;;;5092401;28;19912;-73
2023/09/11 05:54:08;;;;;;;;;;;;;;;;;;5091831;28;19908;-73
2023/09/11 05:56:34;;;;;;;;;;;;;;;;;;5091540;28;19944;-73
2023/09/11 05:59:00;;;;;;;;;;;;;;;;;;5091859;28;20013;-73
2023/09/11 06:01:27;;;;;;;;;;;;;;;;;;5091862;28;19947;-73
2023/09/11 06:03:53;;;;;;;;;;;;;;;;;;5091995;28;20622;-73
2023/09/11 06:06:19;;;;;;;;;;;;;;;;;;5091436;28;19908;-74
2023/09/11 06:08:45;;;;;;;;;;;;;;;;;;5073443;28;19912;-73
2023/09/11 06:11:11;;;;;;;;;;;;;;;;;;5091946;28;19908;-73
2023/09/11 06:13:37;;;;;;;;;;;;;;;;;;5091759;28;19908;-73
2023/09/11 06:16:03;;;;;;;;;;;;;;;;;;5091194;28;19915;-73
2023/09/11 06:18:29;;;;;;;;;;;;;;;;;;5091090;28;19908;-73
2023/09/11 06:20:55;;;;;;;;;;;;;;;;;;5091509;28;19931;-73
2023/09/11 06:23:21;;;;;;;;;;;;;;;;;;5090853;28;19974;-73
2023/09/11 06:25:46;;;;;;;;;;;;;;;;;;5091655;28;19908;-73
2023/09/11 06:28:13;;;;;;;;;;;;;;;;;;5090800;28;20006;-73
2023/09/11 06:30:38;;;;;;;;;;;;;;;;;;5071872;28;19920;-72
2023/09/11 06:33:04;;;;;;;;;;;;;;;;;;5090272;28;19948;-74
2023/09/11 06:35:30;;;;;;;;;;;;;;;;;;5090476;28;19908;-74
2023/09/11 06:37:56;;;;;;;;;;;;;;;;;;5098342;28;20475;-72
2023/09/11 06:40:22;;;;;;;;;;;;;;;;;;5093673;28;19950;-73
2023/09/11 06:42:48;;;;;;;;;;;;;;;;;;5105166;28;19951;-72
2023/09/11 06:45:14;;;;;;;;;;;;;;;;;;5091074;28;19912;-73
2023/09/11 06:47:41;;;;;;;;;;;;;;;;;;5110210;28;20511;-72
2023/09/11 06:50:07;;;;;;;;;;;;;;;;;;5110165;28;19927;-73
2023/09/11 06:52:38;;;;;;;;;;;;;;;;;;5097672;28;19981;-73
2023/09/11 06:55:04;;;;;;;;;;;;;;;;;;5071211;28;20656;-73
2023/09/11 06:57:30;;;;;;;;;;;;;;;;;;5089271;28;19944;-73
2023/09/11 06:59:56;;;;;;;;;;;;;;;;;;5091371;28;19958;-72
2023/09/11 07:02:22;;;;;;;;;;;;;;;;;;5089617;28;19988;-72
2023/09/11 07:04:48;;;;;;;;;;;;;;;;;;5090147;28;19916;-71
2023/09/11 07:07:13;;;;;;;;;;;;;;;;;;5088886;28;19951;-72
2023/09/11 07:09:39;;;;;;;;;;;;;;;;;;5089223;28;19961;-71
2023/09/11 07:12:06;;;;;;;;;;;;;;;;;;5089106;28;20020;-72
2023/09/11 07:14:32;;;;;;;;;;;;;;;;;;5093017;28;19958;-71
2023/09/11 07:17:04;;;;;;;;;;;;;;;;;;5089334;28;19943;-72
2023/09/11 07:19:30;;;;;;;;;;;;;;;;;;5094935;28;19919;-72
2023/09/11 07:21:56;;;;;;;;;;;;;;;;;;5109709;28;19955;-70
2023/09/11 07:24:22;;;;;;;;;;;;;;;;;;5100588;28;20349;-70
2023/09/11 07:26:48;;;;;;;;;;;;;;;;;;5104126;28;20025;-72
2023/09/11 07:29:14;;;;;;;;;;;;;;;;;;5109269;28;20022;-69
2023/09/11 07:31:40;;;;;;;;;;;;;;;;;;5110013;28;19916;-70
2023/09/11 07:34:06;;;;;;;;;;;;;;;;;;5106330;28;19935;-70
2023/09/11 07:36:32;;;;;;;;;;;;;;;;;;5102308;28;19916;-69
2023/09/11 07:38:58;;;;;;;;;;;;;;;;;;5110029;28;19908;-70
2023/09/11 07:41:24;;;;;;;;;;;;;;;;;;5106400;28;19911;-70
2023/09/11 07:43:50;;;;;;;;;;;;;;;;;;5097735;28;19916;-69
2023/09/11 07:46:16;;;;;;;;;;;;;;;;;;5100316;28;19943;-70
2023/09/11 07:48:42;;;;;;;;;;;;;;;;;;5107699;28;20458;-71
2023/09/11 07:51:08;;;;;;;;;;;;;;;;;;5108830;28;19943;-70
2023/09/11 07:53:34;;;;;;;;;;;;;;;;;;5109264;28;20004;-70
2023/09/11 07:56:00;;;;;;;;;;;;;;;;;;5108352;28;19948;-71
2023/09/11 07:58:26;;;;;;;;;;;;;;;;;;5107657;28;19954;-69
2023/09/11 08:00:52;;;;;;;;;;;;;;;;;;5089241;28;19943;-71
2023/09/11 08:03:18;;;;;;;;;;;;;;;;;;5108083;28;20004;-70
2023/09/11 08:05:44;;;;;;;;;;;;;;;;;;5107857;28;20361;-70
2023/09/11 08:08:10;;;;;;;;;;;;;;;;;;5105998;28;19954;-70
2023/09/11 08:10:36;;;;;;;;;;;;;;;;;;5108257;28;19958;-71
2023/09/11 08:13:02;;;;;;;;;;;;;;;;;;5111263;28;19954;-70
2023/09/11 08:15:29;;;;;;;;;;;;;;;;;;5111189;28;20466;-69
2023/09/11 08:17:55;;;;;;;;;;;;;;;;;;5111292;28;19908;-69
2023/09/11 08:20:21;;;;;;;;;;;;;;;;;;5111329;28;19911;-69
2023/09/11 08:22:47;;;;;;;;;;;;;;;;;;5112239;28;19951;-69
2023/09/11 08:25:13;;;;;;;;;;;;;;;;;;5112633;28;20000;-69
2023/09/11 08:27:40;;;;;;;;;;;;;;;;;;5113096;28;19908;-69
2023/09/11 08:30:06;;;;;;;;;;;;;;;;;;5112639;28;19974;-68
2023/09/11 08:32:35;;;;;;;;;;;;;;;;;;5112805;28;20025;-69
2023/09/11 08:35:02;;;;;;;;;;;;;;;;;;5113370;28;19935;-69
2023/09/11 08:37:28;;;;;;;;;;;;;;;;;;5112302;28;19912;-67
2023/09/11 08:39:54;;;;;;;;;;;;;;;;;;5112487;28;19908;-70
2023/09/11 08:42:20;;;;;;;;;;;;;;;;;;5112798;28;19923;-68
2023/09/11 08:44:46;;;;;;;;;;;;;;;;;;5093854;28;20022;-68
2023/09/11 08:47:12;;;;;;;;;;;;;;;;;;5112607;28;19970;-68
2023/09/11 08:49:38;;;;;;;;;;;;;;;;;;5112721;28;20353;-69
2023/09/11 08:52:04;;;;;;;;;;;;;;;;;;5112568;28;20390;-70
2023/09/11 08:54:30;;;;;;;;;;;;;;;;;;5112490;28;19951;-68
2023/09/11 08:56:56;;;;;;;;;;;;;;;;;;5112676;28;19915;-69
2023/09/11 08:59:21;;;;;;;;;;;;;;;;;;5112399;28;20250;-69
2023/09/11 09:01:48;;;;;;;;;;;;;;;;;;5112044;28;20411;-69
2023/09/11 09:04:14;;;;;;;;;;;;;;;;;;5112630;28;20483;-69
2023/09/11 09:06:40;;;;;;;;;;;;;;;;;;5112357;28;19962;-69
2023/09/11 09:09:06;;;;;;;;;;;;;;;;;;5093936;28;19958;-70
2023/09/11 09:11:32;;;;;;;;;;;;;;;;;;5111953;28;19958;-68
2023/09/11 09:13:58;;;;;;;;;;;;;;;;;;5113084;28;19943;-71
2023/09/11 09:16:24;;;;;;;;;;;;;;;;;;5112981;28;19908;-69
2023/09/11 09:18:50;;;;;;;;;;;;;;;;;;5113103;28;19994;-70
2023/09/11 09:21:16;;;;;;;;;;;;;;;;;;5111689;28;19951;-70
2023/09/11 09:23:42;;;;;;;;;;;;;;;;;;5112890;28;19926;-71
2023/09/11 09:26:08;;;;;;;;;;;;;;;;;;5112959;28;19958;-70
2023/09/11 09:28:34;;;;;;;;;;;;;;;;;;5113769;28;19916;-71
2023/09/11 09:31:00;;;;;;;;;;;;;;;;;;5112837;28;20600;-69
2023/09/11 09:33:26;;;;;;;;;;;;;;;;;;5112900;28;19958;-70
2023/09/11 09:35:54;;;;;;;;;;;;;;;;;;5112480;28;20494;-70
2023/09/11 09:38:20;;;;;;;;;;;;;;;;;;5112268;28;19951;-70
2023/09/11 09:40:46;;;;;;;;;;;;;;;;;;5111678;28;19912;-70
2023/09/11 09:43:12;;;;;;;;;;;;;;;;;;5111775;28;19908;-70
2023/09/11 09:45:44;;;;;;;;;;;;;;;;;;5111515;28;20377;-70
2023/09/11 09:48:10;;;;;;;;;;;;;;;;;;5112174;28;19954;-70
2023/09/11 09:50:36;;;;;;;;;;;;;;;;;;5111668;28;19963;-69
2023/09/11 09:53:02;;;;;;;;;;;;;;;;;;5112464;28;20392;-70
2023/09/11 09:55:28;;;;;;;;;;;;;;;;;;5112017;28;19955;-70
2023/09/11 09:57:54;;;;;;;;;;;;;;;;;;5111909;28;19939;-71
2023/09/11 10:00:20;;;;;;;;;;;;;;;;;;5112241;28;19938;-71
2023/09/11 10:02:46;;;;;;;;;;;;;;;;;;5093897;28;19951;-71
2023/09/11 10:05:13;;;;;;;;;;;;;;;;;;5111935;28;20002;-70
2023/09/11 10:07:39;;;;;;;;;;;;;;;;;;5093845;28;19914;-71
2023/09/11 10:10:05;;;;;;;;;;;;;;;;;;5111716;28;20348;-71
2023/09/11 10:12:31;;;;;;;;;;;;;;;;;;5112027;28;19996;-71
2023/09/11 10:14:57;;;;;;;;;;;;;;;;;;5111820;28;19948;-72
2023/09/11 10:17:23;;;;;;;;;;;;;;;;;;5111284;28;19920;-71
2023/09/11 10:19:49;;;;;;;;;;;;;;;;;;5111932;28;20082;-70
2023/09/11 10:22:15;;;;;;;;;;;;;;;;;;5112005;28;19954;-70
2023/09/11 10:24:41;;;;;;;;;;;;;;;;;;5111110;28;19920;-71
2023/09/11 10:27:07;;;;;;;;;;;;;;;;;;5093387;28;19958;-70
2023/09/11 10:29:34;;;;;;;;;;;;;;;;;;5109894;28;19987;-69
2023/09/11 10:32:00;;;;;;;;;;;;;;;;;;5110777;28;19946;-73
2023/09/11 10:34:26;;;;;;;;;;;;;;;;;;5111851;28;19939;-70
2023/09/11 10:36:52;;;;;;;;;;;;;;;;;;5111640;28;19946;-69
2023/09/11 10:39:18;;;;;;;;;;;;;;;;;;5110721;28;19970;-68
2023/09/11 10:41:44;;;;;;;;;;;;;;;;;;5110117;28;19973;-71
2023/09/11 10:44:10;;;;;;;;;;;;;;;;;;5110515;28;19943;-69
2023/09/11 10:46:39;;;;;;;;;;;;;;;;;;5111767;28;20289;-70
2023/09/11 10:49:05;;;;;;;;;;;;;;;;;;5111186;28;19916;-69
2023/09/11 10:51:31;;;;;;;;;;;;;;;;;;5110720;28;19943;-70
2023/09/11 10:53:57;;;;;;;;;;;;;;;;;;5111266;28;19908;-70
2023/09/11 10:56:23;;;;;;;;;;;;;;;;;;5111035;28;20269;-69
2023/09/11 10:58:49;;;;;;;;;;;;;;;;;;5110348;28;19970;-70
2023/09/11 11:01:30;;;;;;;;;;;;;;;;;;5110823;28;19915;-70
2023/09/11 11:03:56;;;;;;;;;;;;;;;;;;5109602;28;19912;-68
2023/09/11 11:06:22;;;;;;;;;;;;;;;;;;5109386;28;19976;-69
2023/09/11 11:08:48;;;;;;;;;;;;;;;;;;5109859;28;19916;-70
2023/09/11 11:11:14;;;;;;;;;;;;;;;;;;5111011;28;19907;-70
2023/09/11 11:13:41;;;;;;;;;;;;;;;;;;5110651;28;19912;-70
2023/09/11 11:16:07;;;;;;;;;;;;;;;;;;5092513;28;19908;-72
2023/09/11 11:18:33;;;;;;;;;;;;;;;;;;5110169;28;19919;-72
2023/09/11 11:20:59;;;;;;;;;;;;;;;;;;5108886;28;20242;-71
2023/09/11 11:23:25;;;;;;;;;;;;;;;;;;5109696;28;20349;-72
2023/09/11 11:25:51;;;;;;;;;;;;;;;;;;5109807;28;20430;-71
2023/09/11 11:28:18;;;;;;;;;;;;;;;;;;5110134;28;20418;-72
2023/09/11 11:30:44;;;;;;;;;;;;;;;;;;5109938;28;19915;-70
2023/09/11 11:33:10;;;;;;;;;;;;;;;;;;5109487;28;19968;-71
2023/09/11 11:35:36;;;;;;;;;;;;;;;;;;5110590;28;20337;-71
2023/09/11 11:38:02;;;;;;;;;;;;;;;;;;5109368;28;20403;-68
2023/09/11 11:40:28;;;;;;;;;;;;;;;;;;5109880;28;19955;-73
2023/09/11 11:42:55;;;;;;;;;;;;;;;;;;5109644;28;19951;-70
2023/09/11 11:45:21;;;;;;;;;;;;;;;;;;5111331;28;19911;-69
2023/09/11 11:47:47;;;;;;;;;;;;;;;;;;5114022;28;19962;-70
2023/09/11 11:50:13;;;;;;;;;;;;;;;;;;5113516;28;19976;-70
2023/09/11 11:52:40;;;;;;;;;;;;;;;;;;5113885;28;19915;-69
2023/09/11 11:55:06;;;;;;;;;;;;;;;;;;5113465;28;19908;-69
2023/09/11 11:57:32;;;;;;;;;;;;;;;;;;5113407;28;19993;-69
2023/09/11 11:59:58;;;;;;;;;;;;;;;;;;5114130;28;20006;-69
2023/09/11 12:02:24;;;;;;;;;;;;;;;;;;5114326;28;19940;-67
2023/09/11 12:04:49;;;;;;;;;;;;;;;;;;5114596;28;19914;-70
2023/09/11 12:07:15;;;;;;;;;;;;;;;;;;5113852;28;20288;-72
2023/09/11 12:09:41;;;;;;;;;;;;;;;;;;5114307;28;19977;-71
2023/09/11 12:12:08;;;;;;;;;;;;;;;;;;5114312;28;19912;-71
2023/09/11 12:14:36;;;;;;;;;;;;;;;;;;5113761;28;19999;-70
2023/09/11 12:17:02;;;;;;;;;;;;;;;;;;5114586;28;19915;-69
2023/09/11 12:19:28;;;;;;;;;;;;;;;;;;5113355;28;19919;-69
2023/09/11 12:21:54;;;;;;;;;;;;;;;;;;5112140;28;19908;-69
2023/09/11 12:24:20;;;;;;;;;;;;;;;;;;5112502;28;19930;-70
2023/09/11 12:26:46;;;;;;;;;;;;;;;;;;5112712;28;20002;-67
2023/09/11 12:29:12;;;;;;;;;;;;;;;;;;5113337;28;19912;-69
2023/09/11 12:31:38;;;;;;;;;;;;;;;;;;5114009;28;20400;-69
2023/09/11 12:34:04;;;;;;;;;;;;;;;;;;5113893;28;19996;-68
2023/09/11 12:36:30;;;;;;;;;;;;;;;;;;5112713;28;20403;-70
2023/09/11 12:38:56;;;;;;;;;;;;;;;;;;5113986;28;19994;-70
2023/09/11 12:41:24;;;;;;;;;;;;;;;;;;5113804;28;20078;-71
2023/09/11 12:43:50;;;;;;;;;;;;;;;;;;5114128;28;19931;-70
2023/09/11 12:46:16;;;;;;;;;;;;;;;;;;5112595;28;20438;-70
2023/09/11 12:48:42;;;;;;;;;;;;;;;;;;5095399;28;20004;-70
2023/09/11 12:51:08;;;;;;;;;;;;;;;;;;5113339;28;20254;-70
2023/09/11 12:53:35;;;;;;;;;;;;;;;;;;5113435;28;19908;-70
2023/09/11 12:56:01;;;;;;;;;;;;;;;;;;5113452;28;19911;-70
2023/09/11 12:58:27;;;;;;;;;;;;;;;;;;5113197;28;20346;-70
2023/09/11 13:00:53;;;;;;;;;;;;;;;;;;5113525;28;20765;-71
2023/09/11 13:03:19;;;;;;;;;;;;;;;;;;5113443;28;19960;-71
2023/09/11 13:05:45;;;;;;;;;;;;;;;;;;5113543;28;19911;-69
2023/09/11 13:08:12;;;;;;;;;;;;;;;;;;5095023;28;19908;-71
2023/09/11 13:10:38;;;;;;;;;;;;;;;;;;5113648;28;19955;-70
2023/09/11 13:13:04;;;;;;;;;;;;;;;;;;5112713;28;19915;-71
2023/09/11 13:15:30;;;;;;;;;;;;;;;;;;5113163;28;19908;-71
2023/09/11 13:17:56;;;;;;;;;;;;;;;;;;5112810;28;19908;-68
2023/09/11 13:20:22;;;;;;;;;;;;;;;;;;5112594;28;19947;-70
2023/09/11 13:22:48;;;;;;;;;;;;;;;;;;5112436;28;20341;-68
2023/09/11 13:25:14;;;;;;;;;;;;;;;;;;5112940;28;19927;-69
2023/09/11 13:27:40;;;;;;;;;;;;;;;;;;5111607;28;20059;-71
2023/09/11 13:30:06;;;;;;;;;;;;;;;;;;5094160;28;19966;-71
2023/09/11 13:32:32;;;;;;;;;;;;;;;;;;5094201;28;20050;-70
2023/09/11 13:34:58;;;;;;;;;;;;;;;;;;5112922;28;19964;-69
2023/09/11 13:37:24;;;;;;;;;;;;;;;;;;5111868;28;19915;-70
2023/09/11 13:39:50;;;;;;;;;;;;;;;;;;5108560;28;20362;-70
2023/09/11 13:42:23;;;;;;;;;;;;;;;;;;5109849;28;19971;-70
2023/09/11 13:44:49;;;;;;;;;;;;;;;;;;5110346;28;19908;-70
2023/09/11 13:47:15;;;;;;;;;;;;;;;;;;5110807;28;20575;-69
2023/09/11 13:49:41;;;;;;;;;;;;;;;;;;5110072;28;20000;-69
2023/09/11 13:52:07;;;;;;;;;;;;;;;;;;5110040;28;19978;-68
2023/09/11 13:54:33;;;;;;;;;;;;;;;;;;5111781;28;19974;-69
2023/09/11 13:56:59;;;;;;;;;;;;;;;;;;5112217;28;19908;-68
2023/09/11 13:59:25;;;;;;;;;;;;;;;;;;5111905;28;20382;-69
2023/09/11 14:01:51;;;;;;;;;;;;;;;;;;5112460;28;19943;-70
2023/09/11 14:04:17;;;;;;;;;;;;;;;;;;5112176;28;20003;-71
2023/09/11 14:06:44;;;;;;;;;;;;;;;;;;5112058;28;19916;-70
2023/09/11 14:09:10;;;;;;;;;;;;;;;;;;5112020;28;19931;-69
2023/09/11 14:11:39;;;;;;;;;;;;;;;;;;5111966;28;19934;-70
2023/09/11 14:14:05;;;;;;;;;;;;;;;;;;5111585;28;19998;-69
2023/09/11 14:16:31;;;;;;;;;;;;;;;;;;5111545;28;19994;-70
2023/09/11 14:18:57;;;;;;;;;;;;;;;;;;5112003;28;19908;-70
2023/09/11 14:21:23;;;;;;;;;;;;;;;;;;5111197;28;20314;-71
2023/09/11 14:23:50;;;;;;;;;;;;;;;;;;5111974;28;20015;-70
2023/09/11 14:26:21;;;;;;;;;;;;;;;;;;5111648;28;19930;-72
2023/09/11 14:28:47;;;;;;;;;;;;;;;;;;5111353;28;19955;-71
2023/09/11 14:31:13;;;;;;;;;;;;;;;;;;5111659;28;20393;-71
2023/09/11 14:33:39;;;;;;;;;;;;;;;;;;5111345;28;19961;-71
2023/09/11 14:36:05;;;;;;;;;;;;;;;;;;5111610;28;19911;-69
2023/09/11 14:38:31;;;;;;;;;;;;;;;;;;5111801;28;19960;-70
2023/09/11 14:40:58;;;;;;;;;;;;;;;;;;5111847;28;19908;-70
2023/09/11 14:43:24;;;;;;;;;;;;;;;;;;5111459;28;19915;-70
2023/09/11 14:45:50;;;;;;;;;;;;;;;;;;5111156;28;19960;-70
2023/09/11 14:48:16;;;;;;;;;;;;;;;;;;5108889;28;19994;-71
2023/09/11 14:50:42;;;;;;;;;;;;;;;;;;5110018;28;19916;-71
2023/09/11 14:53:08;;;;;;;;;;;;;;;;;;5110662;28;19923;-70
2023/09/11 14:55:34;;;;;;;;;;;;;;;;;;5110999;28;19965;-70
2023/09/11 14:58:00;;;;;;;;;;;;;;;;;;5110944;28;19908;-70
2023/09/11 15:00:26;;;;;;;;;;;;;;;;;;5111220;28;19915;-70
2023/09/11 15:02:52;;;;;;;;;;;;;;;;;;5110614;28;19969;-71
2023/09/11 15:05:18;;;;;;;;;;;;;;;;;;5092690;28;19912;-70
2023/09/11 15:07:44;;;;;;;;;;;;;;;;;;5110636;28;19959;-70
2023/09/11 15:10:10;;;;;;;;;;;;;;;;;;5111270;28;19957;-70
2023/09/11 15:12:36;;;;;;;;;;;;;;;;;;5111091;28;20546;-71
2023/09/11 15:15:02;;;;;;;;;;;;;;;;;;5092506;28;19908;-70
2023/09/11 15:17:28;;;;;;;;;;;;;;;;;;5111077;28;19912;-71
2023/09/11 15:19:54;;;;;;;;;;;;;;;;;;5112657;28;20310;-71
2023/09/11 15:22:20;;;;;;;;;;;;;;;;;;5096688;28;19970;-71
2023/09/11 15:24:46;;;;;;;;;;;;;;;;;;5114882;28;19977;-70
2023/09/11 15:27:12;;;;;;;;;;;;;;;;;;5114960;28;20417;-70
2023/09/11 15:29:38;;;;;;;;;;;;;;;;;;5115097;28;19977;-70
2023/09/11 15:32:04;;;;;;;;;;;;;;;;;;5115167;28;19912;-70
2023/09/11 15:34:30;;;;;;;;;;;;;;;;;;5115156;28;19915;-71
2023/09/11 15:36:56;;;;;;;;;;;;;;;;;;5115102;28;19947;-70
2023/09/11 15:39:22;;;;;;;;;;;;;;;;;;5114476;28;19915;-69
2023/09/11 15:41:48;;;;;;;;;;;;;;;;;;5115215;28;19907;-70
2023/09/11 15:44:17;;;;;;;;;;;;;;;;;;5114922;28;20007;-71
2023/09/11 15:46:43;;;;;;;;;;;;;;;;;;5115380;28;19911;-71
2023/09/11 15:49:09;;;;;;;;;;;;;;;;;;5115162;28;19919;-70
2023/09/11 15:51:35;;;;;;;;;;;;;;;;;;5115180;28;19964;-69
2023/09/11 15:54:01;;;;;;;;;;;;;;;;;;5114611;28;20370;-69
2023/09/11 15:56:27;;;;;;;;;;;;;;;;;;5114664;28;19998;-70
2023/09/11 15:58:53;;;;;;;;;;;;;;;;;;5115167;28;19908;-68
2023/09/11 16:01:19;;;;;;;;;;;;;;;;;;5114331;28;19908;-72
2023/09/11 16:03:45;;;;;;;;;;;;;;;;;;5096638;28;19961;-70
2023/09/11 16:06:11;;;;;;;;;;;;;;;;;;5113950;28;19908;-71
2023/09/11 16:08:37;;;;;;;;;;;;;;;;;;5114553;28;19914;-71
2023/09/11 16:11:03;;;;;;;;;;;;;;;;;;5114928;28;19919;-71
2023/09/11 16:13:29;;;;;;;;;;;;;;;;;;5114266;28;19908;-71
2023/09/11 16:15:55;;;;;;;;;;;;;;;;;;5114170;28;19959;-71
2023/09/11 16:18:21;;;;;;;;;;;;;;;;;;5113495;28;19969;-71
2023/09/11 16:20:47;;;;;;;;;;;;;;;;;;5114024;28;19914;-71
2023/09/11 16:23:13;;;;;;;;;;;;;;;;;;5113972;28;19977;-70
2023/09/11 16:25:39;;;;;;;;;;;;;;;;;;5114070;28;20082;-71
2023/09/11 16:28:05;;;;;;;;;;;;;;;;;;5113943;28;20272;-70
2023/09/11 16:30:31;;;;;;;;;;;;;;;;;;5114075;28;19916;-70
2023/09/11 16:32:59;;;;;;;;;;;;;;;;;;5114113;28;19918;-72
2023/09/11 16:35:25;;;;;;;;;;;;;;;;;;5113324;28;19915;-71
2023/09/11 16:37:51;;;;;;;;;;;;;;;;;;5114404;28;19908;-71